Time;durP1;ratioP1;P1;durP2;ratioP2;P2;SDS_P1;SDS_P2;PMS_P1;PMS_P2;Temp;Humidity;BMP_temperature;BMP_pressure;BME280_temperature;BME280_humidity;BME280_pressure;Samples;Min_cycle;Max_cycle;Signal;HPM_P1;HPM_P2
2021/12/12 00:02:43;;;;;;;0.20;0.10;;;;;;;0.97;100.00;101113.72;5003556;28;20515;-50
2021/12/12 00:05:12;;;;;;;1.40;1.40;;;;;;;0.94;100.00;101105.75;5002793;28;20485;-49
2021/12/12 00:07:40;;;;;;;0.20;0.10;;;;;;;0.98;100.00;101109.34;5003536;28;20453;-50
2021/12/12 00:10:15;;;;;;;0.20;0.10;;;;;;;1.06;100.00;101113.91;5008166;28;20949;-49
2021/12/12 00:12:46;;;;;;;0.20;0.10;;;;;;;1.02;100.00;101113.81;5002424;28;20499;-50
2021/12/12 00:15:16;;;;;;;0.20;0.10;;;;;;;1.04;100.00;101126.06;4989037;28;20488;-49
2021/12/12 00:17:44;;;;;;;0.20;0.10;;;;;;;0.97;100.00;101126.78;5004483;28;20449;-49
2021/12/12 00:20:14;;;;;;;0.20;0.10;;;;;;;0.92;100.00;101141.47;5004164;28;20481;-49
2021/12/12 00:22:41;;;;;;;0.20;0.10;;;;;;;0.83;100.00;101144.78;5003042;28;20563;-49
2021/12/12 00:25:09;;;;;;;0.20;0.10;;;;;;;0.87;100.00;101135.28;5002954;28;20492;-49
2021/12/12 00:27:36;;;;;;;0.20;0.10;;;;;;;0.73;100.00;101150.63;5002830;28;20814;-49
2021/12/12 00:30:07;;;;;;;0.20;0.10;;;;;;;0.63;100.00;101151.22;5008484;28;20452;-50
2021/12/12 00:32:36;;;;;;;0.20;0.10;;;;;;;0.74;100.00;101148.91;5000413;28;20466;-48
2021/12/12 00:35:14;;;;;;;0.20;0.10;;;;;;;0.79;100.00;101145.53;4996006;28;20974;-49
2021/12/12 00:37:42;;;;;;;0.20;0.10;;;;;;;0.93;100.00;101134.50;4993560;28;20518;-49
2021/12/12 00:40:26;;;;;;;0.20;0.10;;;;;;;0.85;100.00;101139.59;5001356;28;20503;-49
2021/12/12 00:42:56;;;;;;;0.20;0.10;;;;;;;0.56;100.00;101131.91;5000371;28;20989;-49
2021/12/12 00:45:24;;;;;;;0.20;0.10;;;;;;;0.64;100.00;101120.72;5006120;28;20503;-49
2021/12/12 00:47:51;;;;;;;0.20;0.10;;;;;;;0.58;100.00;101117.13;5002806;28;20483;-49
2021/12/12 00:50:35;;;;;;;0.20;0.20;;;;;;;0.75;100.00;101116.66;5000525;28;20461;-49
2021/12/12 00:53:05;;;;;;;0.20;0.10;;;;;;;0.73;100.00;101116.63;5003379;28;20508;-49
2021/12/12 00:55:37;;;;;;;0.20;0.10;;;;;;;0.75;100.00;101122.75;4988070;28;20487;-49
2021/12/12 00:58:10;;;;;;;0.20;0.10;;;;;;;0.59;100.00;101123.25;5001900;28;20879;-49
2021/12/12 01:00:43;;;;;;;0.20;0.10;;;;;;;0.74;100.00;101122.72;4994925;28;20460;-49
2021/12/12 01:03:11;;;;;;;0.20;0.10;;;;;;;0.81;100.00;101125.50;5003302;28;20555;-49
2021/12/12 01:05:41;;;;;;;0.20;0.10;;;;;;;0.79;100.00;101132.44;5003277;28;20914;-49
2021/12/12 01:08:10;;;;;;;0.20;0.10;;;;;;;0.74;100.00;101139.31;5005462;28;20453;-48
2021/12/12 01:10:42;;;;;;;0.20;0.10;;;;;;;0.74;100.00;101136.69;4999837;28;21012;-49
2021/12/12 01:13:09;;;;;;;0.20;0.10;;;;;;;0.74;100.00;101139.31;5001601;28;20480;-49
2021/12/12 01:15:44;;;;;;;0.20;0.10;;;;;;;0.92;100.00;101143.22;5010184;28;20529;-49
2021/12/12 01:18:18;;;;;;;0.20;0.10;;;;;;;0.97;100.00;101149.47;4995611;28;20453;-50
2021/12/12 01:20:53;;;;;;;0.20;0.10;;;;;;;1.00;100.00;101142.56;4998314;28;20489;-49
2021/12/12 01:23:36;;;;;;;0.20;0.10;;;;;;;1.16;100.00;101144.69;5010345;28;20496;-49
2021/12/12 01:26:07;;;;;;;0.20;0.10;;;;;;;1.17;100.00;101142.94;5001963;28;20545;-50
2021/12/12 01:28:37;;;;;;;0.20;0.10;;;;;;;1.24;100.00;101150.13;5008985;28;20944;-49
2021/12/12 01:31:08;;;;;;;0.20;0.10;;;;;;;1.14;100.00;101148.13;5008801;28;20460;-49
2021/12/12 01:33:36;;;;;;;0.20;0.10;;;;;;;1.19;100.00;101138.63;5008433;28;20506;-49
2021/12/12 01:36:12;;;;;;;0.20;0.10;;;;;;;1.25;100.00;101151.00;4994240;28;20460;-49
2021/12/12 01:41:47;;;;;;;0.20;0.10;;;;;;;1.17;100.00;101151.69;5004511;28;20483;-49
2021/12/12 01:44:20;;;;;;;0.20;0.10;;;;;;;1.27;100.00;101158.03;5002245;28;20878;-49
2021/12/12 01:46:53;;;;;;;0.20;0.20;;;;;;;1.23;100.00;101152.66;5002804;28;20456;-49
2021/12/12 01:49:25;;;;;;;0.20;0.10;;;;;;;0.86;100.00;101155.31;5001259;28;20953;-49
2021/12/12 01:51:54;;;;;;;0.20;0.10;;;;;;;0.91;100.00;101150.19;5003907;28;20532;-49
2021/12/12 01:54:26;;;;;;;0.20;0.10;;;;;;;1.14;100.00;101146.38;5000533;28;20476;-49
2021/12/12 01:56:59;;;;;;;0.20;0.10;;;;;;;1.25;100.00;101149.25;5003149;28;20453;-50
2021/12/12 01:59:32;;;;;;;0.20;0.10;;;;;;;1.25;100.00;101138.78;5006119;28;20452;-50
2021/12/12 02:02:08;;;;;;;0.20;0.10;;;;;;;1.26;100.00;101139.69;4995840;28;21069;-50
2021/12/12 02:04:41;;;;;;;0.20;0.10;;;;;;;1.23;100.00;101140.47;5005182;28;20503;-50
2021/12/12 02:07:10;;;;;;;0.20;0.10;;;;;;;1.19;100.00;101146.50;5007686;28;20560;-49
2021/12/12 02:09:37;;;;;;;0.20;0.10;;;;;;;1.29;100.00;101147.59;5009860;28;20954;-50
2021/12/12 02:12:06;;;;;;;0.20;0.10;;;;;;;1.54;100.00;101154.28;5003596;28;20472;-49
2021/12/12 02:14:36;;;;;;;0.20;0.10;;;;;;;1.27;100.00;101150.19;5002692;28;20453;-49
2021/12/12 02:17:27;;;;;;;0.20;0.10;;;;;;;1.18;100.00;101150.84;5010119;28;20506;-50
2021/12/12 02:36:12;;;;;;;0.20;0.10;;;;;;;1.27;100.00;101152.78;4990551;28;20950;-49
2021/12/12 02:38:40;;;;;;;0.20;0.10;;;;;;;1.32;100.00;101150.28;5004085;28;20887;-49
2021/12/12 02:41:11;;;;;;;0.50;0.50;;;;;;;1.34;100.00;101154.69;5007311;28;20460;-50
2021/12/12 02:43:42;;;;;;;0.20;0.10;;;;;;;1.31;100.00;101156.38;5005496;28;20485;-50
2021/12/12 02:46:11;;;;;;;0.20;0.10;;;;;;;1.30;100.00;101162.44;5003310;28;20840;-49
2021/12/12 02:48:40;;;;;;;0.20;0.10;;;;;;;1.35;100.00;101159.06;5001909;28;20871;-50
2021/12/12 02:51:14;;;;;;;0.20;0.10;;;;;;;1.40;100.00;101161.81;4997084;28;20575;-49
2021/12/12 02:53:52;;;;;;;0.20;0.10;;;;;;;1.34;100.00;101165.16;5001785;28;20486;-50
2021/12/12 02:56:34;;;;;;;0.20;0.10;;;;;;;1.34;100.00;101157.31;5007909;28;20484;-50
2021/12/12 02:59:06;;;;;;;0.20;0.20;;;;;;;1.26;100.00;101145.78;4994289;28;20505;-49
2021/12/12 03:01:44;;;;;;;0.20;0.10;;;;;;;1.33;100.00;101149.41;5006486;28;20974;-49
2021/12/12 03:04:11;;;;;;;0.20;0.10;;;;;;;1.42;100.00;101142.66;5009635;28;20989;-50
2021/12/12 03:06:41;;;;;;;0.20;0.10;;;;;;;1.60;100.00;101146.53;4995771;28;20819;-48
2021/12/12 03:09:14;;;;;;;0.20;0.10;;;;;;;1.58;100.00;101143.00;5007086;28;20475;-48
2021/12/12 03:11:42;;;;;;;0.20;0.10;;;;;;;1.59;100.00;101140.41;5006077;28;20955;-49
2021/12/12 03:14:09;;;;;;;0.27;0.17;;;;;;;1.40;100.00;101143.50;5003942;28;20459;-48
2021/12/12 03:16:36;;;;;;;0.30;0.20;;;;;;;1.54;100.00;101138.56;5003960;28;20867;-48
2021/12/12 03:19:05;;;;;;;0.20;0.10;;;;;;;1.39;100.00;101137.38;5004559;28;20507;-48
2021/12/12 03:21:35;;;;;;;0.20;0.10;;;;;;;1.39;100.00;101132.13;5005143;28;20526;-49
2021/12/12 03:24:13;;;;;;;0.20;0.10;;;;;;;1.43;100.00;101146.16;5003719;28;20484;-48
2021/12/12 03:26:43;;;;;;;0.20;0.10;;;;;;;1.34;100.00;101143.34;4997413;28;20453;-49
2021/12/12 03:29:10;;;;;;;0.20;0.10;;;;;;;1.40;100.00;101146.09;5002003;28;20483;-48
2021/12/12 03:31:44;;;;;;;0.20;0.10;;;;;;;1.46;100.00;101141.88;5002254;28;20505;-47
2021/12/12 03:34:17;;;;;;;0.60;0.60;;;;;;;1.49;100.00;101139.31;5001056;28;20508;-49
2021/12/12 03:36:45;;;;;;;0.20;0.10;;;;;;;1.59;100.00;101142.13;4984974;28;20477;-48
2021/12/12 03:39:26;;;;;;;0.20;0.10;;;;;;;1.68;100.00;101139.72;5001240;28;20457;-48
2021/12/12 03:41:55;;;;;;;0.20;0.10;;;;;;;1.88;100.00;101133.16;4992244;28;21044;-49
2021/12/12 03:44:26;;;;;;;0.30;0.20;;;;;;;1.87;100.00;101130.50;5001063;28;20489;-48
2021/12/12 03:46:57;;;;;;;1.50;0.83;;;;;;;1.84;100.00;101125.19;5005663;28;20479;-48
2021/12/12 03:49:24;;;;;;;0.20;0.10;;;;;;;1.73;100.00;101130.22;5004370;28;20456;-48
2021/12/12 03:51:52;;;;;;;0.20;0.10;;;;;;;1.71;100.00;101130.19;5001778;28;20477;-49
2021/12/12 03:54:18;;;;;;;0.20;0.10;;;;;;;1.68;100.00;101130.13;5007416;28;20452;-49
2021/12/12 03:56:46;;;;;;;0.20;0.10;;;;;;;1.63;100.00;101138.72;5007155;28;20584;-49
2021/12/12 03:59:14;;;;;;;0.20;0.10;;;;;;;1.62;100.00;101135.22;5004293;28;20507;-49
2021/12/12 04:01:47;;;;;;;0.20;0.10;;;;;;;1.40;100.00;101144.38;5003766;28;20520;-48
2021/12/12 04:04:18;;;;;;;0.20;0.10;;;;;;;1.44;100.00;101151.44;5003952;28;20492;-48
2021/12/12 04:06:45;;;;;;;0.20;0.13;;;;;;;1.43;100.00;101144.44;5000558;28;20461;-49
2021/12/12 04:09:15;;;;;;;0.30;0.10;;;;;;;1.18;100.00;101148.22;5005541;28;20507;-48
2021/12/12 04:11:47;;;;;;;0.20;0.20;;;;;;;1.41;100.00;101142.63;5007526;28;20500;-49
2021/12/12 04:14:15;;;;;;;0.20;0.10;;;;;;;1.34;100.00;101144.22;4998073;28;20461;-49
2021/12/12 04:16:45;;;;;;;0.20;0.10;;;;;;;1.38;100.00;101153.06;5001619;28;20484;-49
2021/12/12 04:19:12;;;;;;;0.20;0.10;;;;;;;1.43;100.00;101151.41;4999264;28;20461;-48
2021/12/12 04:21:40;;;;;;;0.20;0.10;;;;;;;1.34;100.00;101152.06;5000261;28;20477;-48
2021/12/12 04:24:09;;;;;;;0.20;0.10;;;;;;;1.47;100.00;101161.09;5004795;28;20513;-48
2021/12/12 04:26:40;;;;;;;0.20;0.10;;;;;;;1.45;100.00;101152.31;5007904;28;20488;-49
2021/12/12 04:29:17;;;;;;;0.20;0.10;;;;;;;1.52;100.00;101164.72;4996549;28;20449;-48
2021/12/12 04:31:49;;;;;;;0.20;0.10;;;;;;;1.62;100.00;101160.53;5006264;28;20500;-48
2021/12/12 04:34:26;;;;;;;0.20;0.10;;;;;;;1.70;100.00;101149.38;4999405;28;20935;-48
2021/12/12 04:36:55;;;;;;;0.20;0.10;;;;;;;1.62;100.00;101163.16;5000471;28;20487;-49
2021/12/12 04:39:26;;;;;;;0.20;0.10;;;;;;;1.73;100.00;101153.78;4997511;28;20479;-48
2021/12/12 04:41:59;;;;;;;0.20;0.10;;;;;;;1.74;100.00;101169.56;5000988;28;20515;-49
2021/12/12 04:44:32;;;;;;;0.20;0.10;;;;;;;1.84;100.00;101170.63;5003112;28;20488;-48
2021/12/12 04:49:55;;;;;;;0.20;0.10;;;;;;;1.91;100.00;101169.91;5010522;28;20879;-48
2021/12/12 04:52:58;;;;;;;0.20;0.10;;;;;;;1.95;100.00;101168.25;5006098;28;20472;-47
2021/12/12 04:55:37;;;;;;;0.80;0.60;;;;;;;1.94;100.00;101162.13;5004113;28;20511;-48
2021/12/12 04:58:06;;;;;;;0.60;0.60;;;;;;;2.06;100.00;101161.50;5003973;28;20452;-49
2021/12/12 05:00:56;;;;;;;0.20;0.10;;;;;;;2.03;100.00;101159.66;5007804;28;20887;-48
2021/12/12 05:03:34;;;;;;;0.20;0.10;;;;;;;2.01;100.00;101171.88;5010264;28;20483;-48
2021/12/12 05:06:07;;;;;;;0.20;0.10;;;;;;;2.01;100.00;101170.97;5006826;28;20452;-48
2021/12/12 05:08:48;;;;;;;0.20;0.10;;;;;;;2.03;100.00;101172.78;5008378;28;20563;-49
2021/12/12 05:11:23;;;;;;;0.20;0.10;;;;;;;2.00;100.00;101167.47;5004466;28;20519;-48
2021/12/12 05:13:56;;;;;;;0.20;0.10;;;;;;;2.14;100.00;101172.09;4995798;28;20448;-49
2021/12/12 05:16:29;;;;;;;0.20;0.10;;;;;;;2.19;100.00;101175.69;5003785;28;20449;-48
2021/12/12 05:19:12;;;;;;;0.20;0.10;;;;;;;2.08;100.00;101178.13;5003732;28;20504;-48
2021/12/12 05:21:45;;;;;;;0.20;0.10;;;;;;;2.11;100.00;101177.31;4993136;28;20469;-48
2021/12/12 05:24:14;;;;;;;0.20;0.10;;;;;;;2.01;100.00;101171.88;5011322;28;20550;-49
2021/12/12 05:26:55;;;;;;;0.20;0.10;;;;;;;2.04;100.00;101182.41;5011394;28;20535;-49
2021/12/12 05:29:36;;;;;;;0.20;0.10;;;;;;;2.05;100.00;101183.28;5001848;28;20861;-49
2021/12/12 05:32:06;;;;;;;0.20;0.10;;;;;;;2.06;100.00;101185.09;5004095;28;20535;-49
2021/12/12 05:34:36;;;;;;;0.20;0.10;;;;;;;2.06;100.00;101180.72;5007560;28;20576;-49
2021/12/12 05:37:03;;;;;;;0.20;0.10;;;;;;;2.10;100.00;101183.41;5004471;28;20499;-49
2021/12/12 05:39:32;;;;;;;0.20;0.10;;;;;;;2.04;100.00;101186.75;5006775;28;20453;-49
2021/12/12 05:42:00;;;;;;;12.63;1.70;;;;;;;2.09;100.00;101187.75;5023381;23;20499;-47
2021/12/12 05:44:29;;;;;;;0.20;0.10;;;;;;;2.12;100.00;101189.56;5026639;28;20484;-48
2021/12/12 05:46:59;;;;;;;0.20;0.10;;;;;;;2.12;100.00;101186.94;5015012;28;20456;-48
2021/12/12 05:49:26;;;;;;;0.20;0.10;;;;;;;2.07;100.00;101185.13;5035805;28;20458;-48
2021/12/12 05:51:53;;;;;;;0.63;0.63;;;;;;;2.13;100.00;101192.19;5037759;28;20471;-48
2021/12/12 05:54:23;;;;;;;0.20;0.20;;;;;;;2.21;100.00;101192.38;5038545;28;20443;-48
2021/12/12 05:56:52;;;;;;;0.20;0.10;;;;;;;2.23;100.00;101198.53;5040309;28;20998;-48
2021/12/12 05:59:20;;;;;;;0.20;0.10;;;;;;;2.13;100.00;101202.69;5035787;28;20828;-48
2021/12/12 06:01:48;;;;;;;0.20;0.10;;;;;;;2.24;100.00;101192.44;5039826;28;20498;-48
2021/12/12 06:04:18;;;;;;;0.20;0.10;;;;;;;2.25;100.00;101199.44;5042860;28;20490;-48
2021/12/12 06:06:46;;;;;;;0.20;0.10;;;;;;;2.28;100.00;101200.38;5044017;28;20452;-49
2021/12/12 06:09:14;;;;;;;0.20;0.10;;;;;;;2.25;100.00;101202.94;5038711;28;20459;-48
2021/12/12 06:11:44;;;;;;;0.20;0.10;;;;;;;2.29;100.00;101196.91;5037009;28;20472;-48
2021/12/12 06:14:12;;;;;;;0.20;0.10;;;;;;;2.29;100.00;101196.91;5034846;28;20948;-48
2021/12/12 06:16:40;;;;;;;0.20;0.10;;;;;;;2.38;100.00;101194.47;5034814;28;20444;-48
2021/12/12 06:19:17;;;;;;;0.20;0.10;;;;;;;2.45;100.00;101190.19;5034653;28;20462;-48
2021/12/12 06:21:46;;;;;;;0.20;0.10;;;;;;;2.47;100.00;101198.09;5020141;28;20529;-48
2021/12/12 06:24:13;;;;;;;0.20;0.10;;;;;;;2.36;100.00;101196.19;5048058;28;20487;-48
2021/12/12 06:26:40;;;;;;;0.20;0.10;;;;;;;2.24;100.00;101192.44;5028068;28;20479;-48
2021/12/12 06:29:08;;;;;;;6.63;1.53;;;;;;;2.37;100.00;101194.44;5047040;28;20455;-48
2021/12/12 06:31:38;;;;;;;0.20;0.10;;;;;;;2.33;100.00;101201.38;5035632;28;20472;-48
2021/12/12 06:34:05;;;;;;;0.20;0.10;;;;;;;2.38;100.00;101210.19;5034588;28;20436;-48
2021/12/12 06:36:32;;;;;;;0.20;0.10;;;;;;;2.42;100.00;101207.63;5044192;28;20504;-48
2021/12/12 06:39:00;;;;;;;0.20;0.10;;;;;;;2.36;100.00;101208.41;5036785;28;20451;-48
2021/12/12 06:41:27;;;;;;;0.20;0.20;;;;;;;2.66;100.00;101210.72;5038416;28;20487;-49
2021/12/12 06:43:56;;;;;;;0.20;0.10;;;;;;;2.44;100.00;101213.78;5042505;28;20534;-48
2021/12/12 06:46:24;;;;;;;0.20;0.10;;;;;;;2.39;100.00;101208.47;5041456;28;20516;-48
2021/12/12 06:48:52;;;;;;;0.20;0.10;;;;;;;2.08;100.00;101205.22;5034004;28;20458;-48
2021/12/12 06:51:19;;;;;;;0.20;0.10;;;;;;;2.16;100.00;101201.88;5038145;28;20487;-48
2021/12/12 06:53:47;;;;;;;0.20;0.10;;;;;;;2.34;100.00;101204.88;5034301;28;20829;-48
2021/12/12 06:56:18;;;;;;;0.20;0.10;;;;;;;2.42;100.00;101205.88;5034202;28;20487;-49
2021/12/12 06:58:46;;;;;;;0.20;0.10;;;;;;;2.45;100.00;101213.81;5033418;28;20464;-48
2021/12/12 07:01:18;;;;;;;0.20;0.10;;;;;;;2.55;100.00;101215.75;5033852;28;20448;-48
2021/12/12 07:03:46;;;;;;;0.20;0.10;;;;;;;2.70;100.00;101220.41;5042036;28;20972;-48
2021/12/12 07:06:16;;;;;;;0.20;0.10;;;;;;;2.83;100.00;101219.78;5034070;28;20444;-48
2021/12/12 07:08:43;;;;;;;0.20;0.10;;;;;;;2.80;100.00;101209.22;5043286;28;20452;-49
2021/12/12 07:11:14;;;;;;;0.20;0.10;;;;;;;2.91;100.00;101217.28;5033768;28;20452;-48
2021/12/12 07:13:40;;;;;;;0.20;0.10;;;;;;;2.92;100.00;101213.81;5033925;28;20874;-48
2021/12/12 07:16:07;;;;;;;0.20;0.10;;;;;;;2.95;100.00;101219.09;5040820;28;20961;-48
2021/12/12 07:18:34;;;;;;;0.20;0.20;;;;;;;2.97;100.00;101223.53;5038618;28;20466;-48
2021/12/12 07:21:09;;;;;;;0.20;0.10;;;;;;;3.04;100.00;101224.53;5033624;28;21007;-48
2021/12/12 07:23:38;;;;;;;0.20;0.10;;;;;;;3.00;100.00;101220.06;5034124;28;20468;-48
2021/12/12 07:26:07;;;;;;;0.87;0.87;;;;;;;2.96;100.00;101220.88;5033383;28;20506;-48
2021/12/12 07:28:35;;;;;;;0.20;0.10;;;;;;;3.08;100.00;101221.09;5033377;28;20948;-48
2021/12/12 07:31:09;;;;;;;0.30;0.20;;;;;;;3.13;100.00;101216.78;5033477;28;20484;-48
2021/12/12 07:33:36;;;;;;;0.20;0.10;;;;;;;3.10;100.00;101219.38;5033414;28;20492;-48
2021/12/12 07:36:07;;;;;;;0.20;0.10;;;;;;;3.18;100.00;101223.00;5019301;28;20452;-48
2021/12/12 07:38:35;;;;;;;0.20;0.10;;;;;;;3.14;100.00;101226.44;5033184;28;20463;-48
2021/12/12 07:41:04;;;;;;;0.20;0.10;;;;;;;3.17;100.00;101225.63;5033187;28;20994;-48
2021/12/12 07:43:32;;;;;;;0.20;0.10;;;;;;;3.25;100.00;101227.50;5033078;28;20480;-48
2021/12/12 07:46:00;;;;;;;0.83;0.83;;;;;;;3.24;100.00;101228.34;5034336;28;20448;-48
2021/12/12 07:48:27;;;;;;;0.20;0.20;;;;;;;3.26;100.00;101231.88;5033242;28;20509;-48
2021/12/12 07:50:54;;;;;;;0.20;0.10;;;;;;;3.32;100.00;101230.25;5033320;28;20455;-48
2021/12/12 07:53:24;;;;;;;0.50;0.50;;;;;;;3.31;100.00;101233.72;5033117;28;20884;-48
2021/12/12 07:55:54;;;;;;;0.20;0.10;;;;;;;3.40;100.00;101236.47;5033363;28;20463;-48
2021/12/12 07:58:22;;;;;;;0.20;0.10;;;;;;;3.41;100.00;101240.88;5033291;28;20475;-48
2021/12/12 08:00:51;;;;;;;0.20;0.20;;;;;;;3.43;100.00;101244.44;5033523;28;20447;-48
2021/12/12 08:03:27;;;;;;;0.20;0.13;;;;;;;3.47;100.00;101246.25;5033227;28;20468;-48
2021/12/12 08:05:54;;;;;;;0.20;0.10;;;;;;;3.50;100.00;101241.91;5032795;28;20497;-48
2021/12/12 08:08:23;;;;;;;0.20;0.13;;;;;;;3.49;100.00;101239.25;5033216;28;20881;-48
2021/12/12 08:10:51;;;;;;;0.20;0.10;;;;;;;3.50;100.00;101241.03;5032886;28;20490;-48
2021/12/12 08:13:18;;;;;;;0.20;0.10;;;;;;;3.50;100.00;101247.16;5032771;28;20546;-48
2021/12/12 08:15:46;;;;;;;0.20;0.10;;;;;;;3.55;100.00;101241.97;5032992;28;20448;-48
2021/12/12 08:18:16;;;;;;;0.20;0.10;;;;;;;3.63;100.00;101242.97;5033139;28;20968;-48
2021/12/12 08:20:47;;;;;;;0.20;0.10;;;;;;;3.74;100.00;101249.28;5032570;28;20456;-48
2021/12/12 08:23:16;;;;;;;0.77;0.77;;;;;;;3.80;100.00;101244.09;5032393;28;20879;-49
2021/12/12 08:25:45;;;;;;;0.20;0.10;;;;;;;3.77;100.00;101236.19;5048473;28;20490;-48
2021/12/12 08:28:13;;;;;;;0.20;0.10;;;;;;;3.84;100.00;101248.56;5043253;28;20501;-48
2021/12/12 08:30:41;;;;;;;0.20;0.10;;;;;;;3.91;100.00;101249.53;5031404;28;20506;-48
2021/12/12 08:33:08;;;;;;;0.20;0.10;;;;;;;4.00;100.00;101256.66;5032704;28;20468;-48
2021/12/12 08:35:36;;;;;;;0.20;0.10;;;;;;;4.04;100.00;101258.47;5049294;28;20447;-48
2021/12/12 08:38:06;;;;;;;0.20;0.20;;;;;;;4.18;100.00;101263.91;5042516;28;20510;-48
2021/12/12 08:40:37;;;;;;;0.20;0.10;;;;;;;4.15;100.00;101260.38;5032760;28;20859;-48
2021/12/12 08:43:09;;;;;;;0.20;0.10;;;;;;;4.30;100.00;101262.31;5032266;28;20479;-48
2021/12/12 08:45:47;;;;;;;0.20;0.10;;;;;;;4.31;100.00;101258.81;5045452;28;20549;-48
2021/12/12 08:48:18;;;;;;;0.20;0.20;;;;;;;4.30;100.00;101264.06;5032797;28;20464;-48
2021/12/12 08:50:49;;;;;;;0.20;0.10;;;;;;;4.29;100.00;101272.84;5032399;28;20444;-49
2021/12/12 08:53:17;;;;;;;0.20;0.10;;;;;;;4.25;100.00;101273.63;5032827;28;20920;-48
2021/12/12 08:55:48;;;;;;;0.20;0.10;;;;;;;4.32;100.00;101273.75;5043877;28;20448;-49
2021/12/12 08:58:20;;;;;;;0.20;0.10;;;;;;;4.39;100.00;101266.84;5032300;28;20501;-48
2021/12/12 09:00:58;;;;;;;0.20;0.10;;;;;;;4.46;100.00;101273.91;5032593;28;20980;-48
2021/12/12 09:03:34;;;;;;;0.20;0.10;;;;;;;4.56;100.00;101269.66;5035948;28;20529;-49
2021/12/12 09:06:02;;;;;;;0.20;0.10;;;;;;;4.61;100.00;101260.06;5029230;28;20499;-48
2021/12/12 09:08:43;;;;;;;0.20;0.20;;;;;;;4.64;100.00;101267.97;5019269;28;20452;-48
2021/12/12 09:11:27;;;;;;;0.20;0.20;;;;;;;4.85;100.00;101276.13;5038771;28;20481;-48
2021/12/12 09:14:02;;;;;;;0.20;0.10;;;;;;;4.97;100.00;101276.25;5026033;28;20447;-49
2021/12/12 09:16:41;;;;;;;0.20;0.10;;;;;;;5.04;100.00;101279.81;5031522;28;20478;-49
2021/12/12 09:19:14;;;;;;;0.20;0.20;;;;;;;5.20;100.00;101276.47;5031840;28;20443;-49
2021/12/12 09:21:48;;;;;;;0.20;0.10;;;;;;;5.17;100.00;101283.47;5031508;28;21095;-49
2021/12/12 09:24:30;;;;;;;0.20;0.10;;;;;;;5.24;100.00;101277.38;5031747;28;20518;-49
2021/12/12 09:27:03;;;;;;;0.20;0.20;;;;;;;4.89;100.00;101291.09;5031864;28;20448;-49
2021/12/12 09:29:35;;;;;;;0.20;0.10;;;;;;;5.14;100.00;101286.06;5032108;28;20452;-49
2021/12/12 09:32:03;;;;;;;0.20;0.10;;;;;;;5.08;100.00;101276.38;5031675;28;20475;-48
2021/12/12 09:34:38;;;;;;;0.20;0.10;;;;;;;5.18;100.00;101278.19;5038247;28;20454;-48
2021/12/12 09:37:37;;;;;;;0.20;0.10;;;;;;;5.26;100.00;101271.25;5039847;28;20462;-49
2021/12/12 09:40:10;;;;;;;0.20;0.20;;;;;;;5.22;100.00;101271.22;5031592;28;20868;-50
2021/12/12 09:42:56;;;;;;;0.20;0.10;;;;;;;5.18;100.00;101264.13;5047521;28;20478;-49
2021/12/12 09:45:52;;;;;;;0.47;0.47;;;;;;;5.24;100.00;101266.84;5035387;28;21015;-50
2021/12/12 09:52:08;;;;;;;0.20;0.20;;;;;;;5.19;100.00;101263.28;5035181;28;20468;-49
2021/12/12 09:54:37;;;;;;;0.30;0.20;;;;;;;5.29;100.00;101267.75;5035528;28;20505;-50
2021/12/12 09:57:30;;;;;;;0.20;0.10;;;;;;;5.41;100.00;101259.97;5041485;28;20467;-50
2021/12/12 10:00:03;;;;;;;0.20;0.10;;;;;;;5.48;100.00;101245.06;5034209;28;20444;-49
2021/12/12 10:02:41;;;;;;;0.20;0.10;;;;;;;5.49;100.00;101249.47;5040995;28;20491;-50
2021/12/12 10:05:25;;;;;;;0.20;0.10;;;;;;;5.42;100.00;101253.81;5034575;28;20836;-50
2021/12/12 10:08:08;;;;;;;0.27;0.20;;;;;;;5.53;100.00;101251.25;5036200;28;20443;-50
2021/12/12 10:11:01;;;;;;;0.20;0.10;;;;;;;5.36;100.00;101256.41;5044212;28;20443;-50
2021/12/12 10:13:43;;;;;;;0.20;0.10;;;;;;;5.70;100.00;101248.75;5022081;28;20482;-50
2021/12/12 10:16:19;;;;;;;0.20;0.10;;;;;;;5.67;100.00;101249.59;5034238;28;20452;-50
2021/12/12 10:18:50;;;;;;;0.20;0.20;;;;;;;5.61;100.00;101239.88;5042525;28;20450;-50
2021/12/12 10:21:52;;;;;;;0.20;0.13;;;;;;;5.56;100.00;101241.63;5034427;28;20506;-50
2021/12/12 10:24:30;;;;;;;0.20;0.10;;;;;;;5.70;100.00;101240.81;5029339;28;21094;-50
2021/12/12 10:27:09;;;;;;;4.57;2.63;;;;;;;5.80;100.00;101234.75;5042284;28;20451;-50
2021/12/12 10:30:04;;;;;;;1.53;1.53;;;;;;;5.72;100.00;101233.81;5034309;28;20447;-50
2021/12/12 10:32:37;;;;;;;1.70;1.70;;;;;;;5.77;100.00;101234.72;5034209;28;20541;-50
2021/12/12 10:35:13;;;;;;;0.20;0.10;;;;;;;5.88;100.00;101231.25;5045900;28;20993;-50
2021/12/12 10:38:14;;;;;;;0.40;0.40;;;;;;;5.96;100.00;101225.19;5020999;28;20440;-50
2021/12/12 10:40:50;;;;;;;0.20;0.10;;;;;;;5.81;100.00;101224.19;5034002;28;20952;-49
2021/12/12 10:43:24;;;;;;;0.30;0.20;;;;;;;5.74;100.00;101214.47;5039911;28;20906;-49
2021/12/12 10:46:05;;;;;;;0.20;0.20;;;;;;;5.69;100.00;101212.69;5021201;28;21022;-49
2021/12/12 10:49:01;;;;;;;0.20;0.20;;;;;;;5.86;100.00;101211.03;5033610;28;21066;-49
2021/12/12 10:51:37;;;;;;;0.20;0.10;;;;;;;5.96;100.00;101210.25;5035423;28;20452;-49
2021/12/12 10:54:36;;;;;;;0.20;0.10;;;;;;;5.84;100.00;101202.22;5034021;28;20431;-49
2021/12/12 10:57:09;;;;;;;0.20;0.10;;;;;;;5.83;100.00;101192.53;5029002;28;20452;-49
2021/12/12 10:59:45;;;;;;;0.20;0.20;;;;;;;5.86;100.00;101195.19;5027623;28;20505;-50
2021/12/12 11:02:16;;;;;;;0.20;0.20;;;;;;;5.89;100.00;101197.84;5053210;28;20501;-50
2021/12/12 11:04:55;;;;;;;0.20;0.17;;;;;;;5.91;100.00;101204.94;5031853;28;20483;-50
2021/12/12 11:07:29;;;;;;;0.20;0.10;;;;;;;5.91;100.00;101204.94;5033426;28;20944;-51
2021/12/12 11:10:18;;;;;;;0.20;0.10;;;;;;;5.81;100.00;101204.84;5042447;28;20866;-49
2021/12/12 11:13:03;;;;;;;0.30;0.20;;;;;;;5.94;100.00;101197.03;5036587;28;20565;-50
2021/12/12 11:15:48;;;;;;;0.20;0.10;;;;;;;5.99;100.00;101199.69;5035575;28;20448;-50
2021/12/12 11:18:27;;;;;;;0.20;0.20;;;;;;;6.09;100.00;101200.63;5049123;28;20465;-49
2021/12/12 11:21:04;;;;;;;0.20;0.20;;;;;;;6.06;100.00;101196.22;5033384;28;20509;-49
2021/12/12 11:23:41;;;;;;;0.20;0.13;;;;;;;6.14;100.00;101204.16;5035149;28;20498;-49
2021/12/12 11:26:16;;;;;;;0.20;0.10;;;;;;;6.12;100.00;101208.53;5037111;28;20521;-49
2021/12/12 11:28:48;;;;;;;0.50;0.50;;;;;;;6.16;100.00;101210.31;5042138;28;20497;-49
2021/12/12 11:31:25;;;;;;;0.20;0.20;;;;;;;6.17;100.00;101198.91;5032623;28;20455;-49
2021/12/12 11:33:54;;;;;;;0.20;0.10;;;;;;;6.09;100.00;101201.50;5036473;28;20458;-50
2021/12/12 11:36:27;;;;;;;0.30;0.30;;;;;;;6.21;100.00;101209.47;5044905;28;20452;-50
2021/12/12 11:39:16;;;;;;;0.20;0.10;;;;;;;6.15;100.00;101205.91;5047177;28;20447;-49
2021/12/12 11:41:56;;;;;;;0.20;0.20;;;;;;;6.20;100.00;101210.34;5027145;28;20483;-50
2021/12/12 11:44:22;;;;;;;0.20;0.10;;;;;;;6.21;100.00;101201.56;5037643;28;20455;-49
2021/12/12 11:47:08;;;;;;;0.20;0.20;;;;;;;6.18;100.00;101195.41;5032146;28;20455;-49
2021/12/12 11:49:50;;;;;;;0.20;0.20;;;;;;;6.27;100.00;101195.41;5037402;28;20471;-50
2021/12/12 11:52:43;;;;;;;0.20;0.20;;;;;;;6.27;100.00;101192.78;5044127;28;20561;-49
2021/12/12 11:55:19;;;;;;;0.20;0.10;;;;;;;6.36;100.00;101202.50;5040601;28;21034;-50
2021/12/12 11:57:58;;;;;;;0.20;0.20;;;;;;;6.40;100.00;101204.25;5031697;28;20451;-50
2021/12/12 12:00:52;;;;;;;0.20;0.20;;;;;;;6.50;100.00;101199.00;5044387;28;20951;-49
2021/12/12 12:03:28;;;;;;;0.20;0.20;;;;;;;6.52;100.00;101197.25;5030521;28;20464;-50
2021/12/12 12:06:08;;;;;;;1.17;1.17;;;;;;;6.44;100.00;101187.53;5032821;28;20549;-50
2021/12/12 12:08:58;;;;;;;0.20;0.20;;;;;;;6.56;100.00;101187.56;5031954;28;20459;-50
2021/12/12 12:11:47;;;;;;;0.20;0.10;;;;;;;6.53;100.00;101185.81;5041289;28;20510;-49
2021/12/12 12:14:23;;;;;;;0.20;0.10;;;;;;;6.53;100.00;101177.88;5031306;28;20479;-50
2021/12/12 12:17:01;;;;;;;0.20;0.20;;;;;;;6.78;100.00;101165.59;5034849;28;20525;-49
2021/12/12 12:19:55;;;;;;;0.20;0.20;;;;;;;6.81;100.00;101157.66;5029585;28;20506;-51